< < Back
Terminal Aerodrome Forecast


Current Version              Previous Versions:   1  2  3  4  5  6  7  8  9  

Terminal Aerodrome Forecast

534
FTUS44 KBMX 300520
TAFTCL
TAF
KTCL 300520Z 3006/3106 00000KT P6SM SCT060 SCT250
     FM301400 26007KT P6SM SCT040
     FM301900 21007KT P6SM VCTS BKN050CB=

Latest METAR

525
SAUS70 KWBC 300900 RRG
MTRTCL
METAR KTCL 300853Z AUTO 00000KT 10SM CLR 24/23 A2997 RMK AO2 SLP146
T02390233 55006


USA.gov is the U.S. government's official web portal to all federal, state and local government web resources and services.